sensor_id;sensor_type;location;lat;lon;timestamp;P1;durP1;ratioP1;P2;durP2;ratioP2
48911;SDS011;34722;52.108;5.044;2022-11-15T00:00:26;113.07;;;40.72;;
48911;SDS011;34722;52.108;5.044;2022-11-15T00:02:52;114.82;;;41.42;;
48911;SDS011;34722;52.108;5.044;2022-11-15T00:05:18;119.57;;;39.45;;
48911;SDS011;34722;52.108;5.044;2022-11-15T00:07:44;137.82;;;47.13;;
48911;SDS011;34722;52.108;5.044;2022-11-15T00:10:09;118.65;;;42.78;;
48911;SDS011;34722;52.108;5.044;2022-11-15T00:12:35;117.35;;;41.40;;
48911;SDS011;34722;52.108;5.044;2022-11-15T00:15:01;118.97;;;42.88;;
48911;SDS011;34722;52.108;5.044;2022-11-15T00:17:26;116.95;;;41.83;;
48911;SDS011;34722;52.108;5.044;2022-11-15T00:19:52;129.07;;;42.83;;
48911;SDS011;34722;52.108;5.044;2022-11-15T00:22:18;124.45;;;41.83;;
48911;SDS011;34722;52.108;5.044;2022-11-15T00:24:44;143.77;;;46.17;;
48911;SDS011;34722;52.108;5.044;2022-11-15T00:27:09;143.20;;;44.03;;
48911;SDS011;34722;52.108;5.044;2022-11-15T00:29:35;139.60;;;47.10;;
48911;SDS011;34722;52.108;5.044;2022-11-15T00:32:03;147.82;;;46.50;;
48911;SDS011;34722;52.108;5.044;2022-11-15T00:34:29;151.57;;;46.78;;
48911;SDS011;34722;52.108;5.044;2022-11-15T00:36:55;177.30;;;45.80;;
48911;SDS011;34722;52.108;5.044;2022-11-15T00:39:20;164.93;;;47.55;;
48911;SDS011;34722;52.108;5.044;2022-11-15T00:41:46;157.55;;;47.33;;
48911;SDS011;34722;52.108;5.044;2022-11-15T00:44:12;164.60;;;47.60;;
48911;SDS011;34722;52.108;5.044;2022-11-15T00:46:38;167.60;;;50.45;;
48911;SDS011;34722;52.108;5.044;2022-11-15T00:49:04;177.50;;;49.95;;
48911;SDS011;34722;52.108;5.044;2022-11-15T00:51:29;187.80;;;50.10;;
48911;SDS011;34722;52.108;5.044;2022-11-15T00:53:55;172.57;;;51.40;;
48911;SDS011;34722;52.108;5.044;2022-11-15T00:56:20;186.07;;;48.80;;
48911;SDS011;34722;52.108;5.044;2022-11-15T00:58:46;172.45;;;48.40;;
48911;SDS011;34722;52.108;5.044;2022-11-15T01:01:12;181.18;;;48.90;;
48911;SDS011;34722;52.108;5.044;2022-11-15T01:03:39;159.68;;;47.53;;
48911;SDS011;34722;52.108;5.044;2022-11-15T01:06:06;171.13;;;49.05;;
48911;SDS011;34722;52.108;5.044;2022-11-15T01:08:34;163.35;;;50.47;;
48911;SDS011;34722;52.108;5.044;2022-11-15T01:11:04;183.88;;;53.58;;
48911;SDS011;34722;52.108;5.044;2022-11-15T01:13:33;184.73;;;53.63;;
48911;SDS011;34722;52.108;5.044;2022-11-15T01:16:05;183.55;;;52.35;;
48911;SDS011;34722;52.108;5.044;2022-11-15T01:18:32;179.82;;;52.45;;
48911;SDS011;34722;52.108;5.044;2022-11-15T01:21:01;181.00;;;53.13;;
48911;SDS011;34722;52.108;5.044;2022-11-15T01:23:30;171.98;;;51.50;;
48911;SDS011;34722;52.108;5.044;2022-11-15T01:25:59;179.10;;;51.35;;
48911;SDS011;34722;52.108;5.044;2022-11-15T01:28:30;187.15;;;50.83;;
48911;SDS011;34722;52.108;5.044;2022-11-15T01:31:02;179.07;;;50.38;;
48911;SDS011;34722;52.108;5.044;2022-11-15T01:33:30;181.98;;;53.28;;
48911;SDS011;34722;52.108;5.044;2022-11-15T01:35:56;164.02;;;51.15;;
48911;SDS011;34722;52.108;5.044;2022-11-15T01:38:22;186.10;;;53.20;;
48911;SDS011;34722;52.108;5.044;2022-11-15T01:40:47;164.13;;;51.15;;
48911;SDS011;34722;52.108;5.044;2022-11-15T01:43:20;179.55;;;51.95;;
48911;SDS011;34722;52.108;5.044;2022-11-15T01:45:49;167.07;;;54.88;;
48911;SDS011;34722;52.108;5.044;2022-11-15T01:48:19;174.27;;;52.22;;
48911;SDS011;34722;52.108;5.044;2022-11-15T01:50:46;156.38;;;52.70;;
48911;SDS011;34722;52.108;5.044;2022-11-15T01:53:12;172.98;;;54.15;;
48911;SDS011;34722;52.108;5.044;2022-11-15T01:55:39;172.57;;;54.55;;
48911;SDS011;34722;52.108;5.044;2022-11-15T01:58:05;165.63;;;51.40;;
48911;SDS011;34722;52.108;5.044;2022-11-15T02:00:31;170.57;;;52.28;;
48911;SDS011;34722;52.108;5.044;2022-11-15T02:02:57;173.68;;;54.45;;
48911;SDS011;34722;52.108;5.044;2022-11-15T02:05:23;169.25;;;54.83;;
48911;SDS011;34722;52.108;5.044;2022-11-15T02:07:49;184.45;;;55.00;;
48911;SDS011;34722;52.108;5.044;2022-11-15T02:10:22;179.18;;;54.38;;
48911;SDS011;34722;52.108;5.044;2022-11-15T02:12:49;164.35;;;55.28;;
48911;SDS011;34722;52.108;5.044;2022-11-15T02:15:17;190.35;;;54.70;;
48911;SDS011;34722;52.108;5.044;2022-11-15T02:28:16;176.82;;;56.08;;
48911;SDS011;34722;52.108;5.044;2022-11-15T02:31:06;180.25;;;58.33;;
48911;SDS011;34722;52.108;5.044;2022-11-15T02:39:35;207.13;;;60.13;;
48911;SDS011;34722;52.108;5.044;2022-11-15T02:42:13;200.18;;;60.78;;
48911;SDS011;34722;52.108;5.044;2022-11-15T02:45:03;184.30;;;59.25;;
48911;SDS011;34722;52.108;5.044;2022-11-15T02:47:34;194.85;;;59.72;;
48911;SDS011;34722;52.108;5.044;2022-11-15T02:50:07;176.30;;;62.13;;
48911;SDS011;34722;52.108;5.044;2022-11-15T02:52:37;197.15;;;61.13;;
48911;SDS011;34722;52.108;5.044;2022-11-15T02:55:03;187.00;;;57.38;;
48911;SDS011;34722;52.108;5.044;2022-11-15T03:00:04;186.60;;;60.33;;
48911;SDS011;34722;52.108;5.044;2022-11-15T03:02:39;195.30;;;62.03;;
48911;SDS011;34722;52.108;5.044;2022-11-15T03:16:47;178.18;;;56.22;;
48911;SDS011;34722;52.108;5.044;2022-11-15T03:22:11;171.07;;;54.78;;
48911;SDS011;34722;52.108;5.044;2022-11-15T03:24:40;173.38;;;56.55;;
48911;SDS011;34722;52.108;5.044;2022-11-15T03:27:08;175.38;;;61.28;;
48911;SDS011;34722;52.108;5.044;2022-11-15T03:29:38;168.45;;;56.95;;
48911;SDS011;34722;52.108;5.044;2022-11-15T03:32:10;169.85;;;60.50;;
48911;SDS011;34722;52.108;5.044;2022-11-15T03:35:03;161.85;;;56.70;;
48911;SDS011;34722;52.108;5.044;2022-11-15T03:37:44;161.90;;;55.85;;
48911;SDS011;34722;52.108;5.044;2022-11-15T03:40:16;162.95;;;55.05;;
48911;SDS011;34722;52.108;5.044;2022-11-15T03:42:44;154.48;;;56.38;;
48911;SDS011;34722;52.108;5.044;2022-11-15T03:45:19;160.23;;;54.88;;
48911;SDS011;34722;52.108;5.044;2022-11-15T03:48:02;152.48;;;55.15;;
48911;SDS011;34722;52.108;5.044;2022-11-15T03:50:35;145.27;;;53.00;;
48911;SDS011;34722;52.108;5.044;2022-11-15T03:53:01;132.40;;;52.58;;
48911;SDS011;34722;52.108;5.044;2022-11-15T03:55:27;145.43;;;55.15;;
48911;SDS011;34722;52.108;5.044;2022-11-15T03:57:56;138.38;;;54.65;;
48911;SDS011;34722;52.108;5.044;2022-11-15T04:00:27;135.40;;;54.05;;
48911;SDS011;34722;52.108;5.044;2022-11-15T04:02:53;137.57;;;53.92;;
48911;SDS011;34722;52.108;5.044;2022-11-15T04:05:19;142.05;;;52.25;;
48911;SDS011;34722;52.108;5.044;2022-11-15T04:07:45;136.57;;;53.15;;
48911;SDS011;34722;52.108;5.044;2022-11-15T04:10:11;136.68;;;50.30;;
48911;SDS011;34722;52.108;5.044;2022-11-15T04:12:45;124.55;;;49.08;;
48911;SDS011;34722;52.108;5.044;2022-11-15T04:15:20;142.40;;;52.47;;
48911;SDS011;34722;52.108;5.044;2022-11-15T04:17:48;136.15;;;51.38;;
48911;SDS011;34722;52.108;5.044;2022-11-15T04:20:16;143.73;;;51.40;;
48911;SDS011;34722;52.108;5.044;2022-11-15T04:23:07;131.82;;;49.75;;
48911;SDS011;34722;52.108;5.044;2022-11-15T04:25:54;128.65;;;48.03;;
48911;SDS011;34722;52.108;5.044;2022-11-15T04:28:21;122.20;;;50.45;;
48911;SDS011;34722;52.108;5.044;2022-11-15T04:30:47;128.13;;;52.13;;
48911;SDS011;34722;52.108;5.044;2022-11-15T04:33:13;130.40;;;49.75;;
48911;SDS011;34722;52.108;5.044;2022-11-15T04:35:42;133.93;;;51.05;;
48911;SDS011;34722;52.108;5.044;2022-11-15T04:38:08;123.95;;;49.15;;
48911;SDS011;34722;52.108;5.044;2022-11-15T04:40:35;125.97;;;47.70;;
48911;SDS011;34722;52.108;5.044;2022-11-15T04:43:02;122.57;;;46.85;;
48911;SDS011;34722;52.108;5.044;2022-11-15T04:45:29;126.60;;;47.63;;
48911;SDS011;34722;52.108;5.044;2022-11-15T04:47:55;128.13;;;50.53;;
48911;SDS011;34722;52.108;5.044;2022-11-15T04:50:20;123.63;;;49.28;;
48911;SDS011;34722;52.108;5.044;2022-11-15T04:52:50;119.28;;;47.33;;
48911;SDS011;34722;52.108;5.044;2022-11-15T04:55:18;120.13;;;46.63;;
48911;SDS011;34722;52.108;5.044;2022-11-15T04:57:45;120.35;;;48.67;;
48911;SDS011;34722;52.108;5.044;2022-11-15T05:00:11;126.72;;;49.65;;
48911;SDS011;34722;52.108;5.044;2022-11-15T05:02:39;117.78;;;47.72;;
48911;SDS011;34722;52.108;5.044;2022-11-15T05:05:26;119.40;;;46.83;;
48911;SDS011;34722;52.108;5.044;2022-11-15T05:07:53;104.90;;;44.28;;
48911;SDS011;34722;52.108;5.044;2022-11-15T05:10:19;106.90;;;43.60;;
48911;SDS011;34722;52.108;5.044;2022-11-15T05:12:44;113.25;;;44.80;;
48911;SDS011;34722;52.108;5.044;2022-11-15T05:15:11;103.85;;;43.45;;
48911;SDS011;34722;52.108;5.044;2022-11-15T05:17:37;105.82;;;43.97;;
48911;SDS011;34722;52.108;5.044;2022-11-15T05:20:09;98.38;;;43.38;;
48911;SDS011;34722;52.108;5.044;2022-11-15T05:22:35;107.03;;;44.45;;
48911;SDS011;34722;52.108;5.044;2022-11-15T05:25:01;101.63;;;43.30;;
48911;SDS011;34722;52.108;5.044;2022-11-15T05:27:27;96.35;;;42.90;;
48911;SDS011;34722;52.108;5.044;2022-11-15T05:29:53;96.18;;;42.25;;
48911;SDS011;34722;52.108;5.044;2022-11-15T05:32:19;99.93;;;44.00;;
48911;SDS011;34722;52.108;5.044;2022-11-15T05:34:49;105.88;;;43.22;;
48911;SDS011;34722;52.108;5.044;2022-11-15T05:37:19;90.57;;;38.65;;
48911;SDS011;34722;52.108;5.044;2022-11-15T05:39:45;94.32;;;40.92;;
48911;SDS011;34722;52.108;5.044;2022-11-15T05:42:12;91.35;;;39.58;;
48911;SDS011;34722;52.108;5.044;2022-11-15T05:44:43;90.03;;;39.72;;
48911;SDS011;34722;52.108;5.044;2022-11-15T05:47:16;96.97;;;40.03;;
48911;SDS011;34722;52.108;5.044;2022-11-15T05:49:48;93.10;;;40.00;;
48911;SDS011;34722;52.108;5.044;2022-11-15T05:52:16;91.38;;;40.95;;
48911;SDS011;34722;52.108;5.044;2022-11-15T05:54:52;96.65;;;39.72;;
48911;SDS011;34722;52.108;5.044;2022-11-15T05:57:19;87.47;;;38.65;;
48911;SDS011;34722;52.108;5.044;2022-11-15T05:59:44;89.38;;;38.75;;
48911;SDS011;34722;52.108;5.044;2022-11-15T06:02:10;87.15;;;37.42;;
48911;SDS011;34722;52.108;5.044;2022-11-15T06:04:36;80.15;;;36.28;;
48911;SDS011;34722;52.108;5.044;2022-11-15T06:07:02;84.93;;;37.45;;
48911;SDS011;34722;52.108;5.044;2022-11-15T06:09:28;77.60;;;36.83;;
48911;SDS011;34722;52.108;5.044;2022-11-15T06:11:53;80.45;;;38.10;;
48911;SDS011;34722;52.108;5.044;2022-11-15T06:14:19;83.10;;;36.85;;
48911;SDS011;34722;52.108;5.044;2022-11-15T06:16:45;80.15;;;35.40;;
48911;SDS011;34722;52.108;5.044;2022-11-15T06:19:10;77.57;;;37.28;;
48911;SDS011;34722;52.108;5.044;2022-11-15T06:21:36;82.72;;;37.63;;
48911;SDS011;34722;52.108;5.044;2022-11-15T06:24:02;79.82;;;37.97;;
48911;SDS011;34722;52.108;5.044;2022-11-15T06:26:28;85.80;;;38.13;;
48911;SDS011;34722;52.108;5.044;2022-11-15T06:28:54;83.40;;;37.70;;
48911;SDS011;34722;52.108;5.044;2022-11-15T06:31:19;86.38;;;38.13;;
48911;SDS011;34722;52.108;5.044;2022-11-15T06:33:46;85.30;;;37.92;;
48911;SDS011;34722;52.108;5.044;2022-11-15T06:36:12;79.07;;;37.50;;
48911;SDS011;34722;52.108;5.044;2022-11-15T06:38:44;80.43;;;36.50;;
48911;SDS011;34722;52.108;5.044;2022-11-15T06:41:10;80.47;;;34.47;;
48911;SDS011;34722;52.108;5.044;2022-11-15T06:43:41;80.72;;;37.58;;
48911;SDS011;34722;52.108;5.044;2022-11-15T06:46:07;83.97;;;37.60;;
48911;SDS011;34722;52.108;5.044;2022-11-15T06:48:36;77.82;;;34.47;;
48911;SDS011;34722;52.108;5.044;2022-11-15T06:51:03;71.68;;;34.85;;
48911;SDS011;34722;52.108;5.044;2022-11-15T06:53:30;84.35;;;38.15;;
48911;SDS011;34722;52.108;5.044;2022-11-15T06:56:05;77.60;;;33.58;;
48911;SDS011;34722;52.108;5.044;2022-11-15T06:58:32;76.35;;;35.95;;
48911;SDS011;34722;52.108;5.044;2022-11-15T07:01:01;80.30;;;35.97;;
48911;SDS011;34722;52.108;5.044;2022-11-15T07:03:29;77.00;;;33.20;;
48911;SDS011;34722;52.108;5.044;2022-11-15T07:05:55;75.25;;;36.53;;
48911;SDS011;34722;52.108;5.044;2022-11-15T07:08:28;77.38;;;34.08;;
48911;SDS011;34722;52.108;5.044;2022-11-15T07:10:54;73.97;;;33.45;;
48911;SDS011;34722;52.108;5.044;2022-11-15T07:13:27;72.65;;;33.22;;
48911;SDS011;34722;52.108;5.044;2022-11-15T07:15:54;73.72;;;35.30;;
48911;SDS011;34722;52.108;5.044;2022-11-15T07:18:20;73.40;;;35.60;;
48911;SDS011;34722;52.108;5.044;2022-11-15T07:20:45;74.35;;;34.92;;
48911;SDS011;34722;52.108;5.044;2022-11-15T07:23:11;76.10;;;34.70;;
48911;SDS011;34722;52.108;5.044;2022-11-15T07:25:37;72.43;;;33.85;;
48911;SDS011;34722;52.108;5.044;2022-11-15T07:28:03;76.00;;;35.83;;
48911;SDS011;34722;52.108;5.044;2022-11-15T07:30:29;79.53;;;34.13;;
48911;SDS011;34722;52.108;5.044;2022-11-15T07:33:05;75.40;;;33.47;;
48911;SDS011;34722;52.108;5.044;2022-11-15T07:35:33;71.47;;;33.22;;
48911;SDS011;34722;52.108;5.044;2022-11-15T07:38:01;73.93;;;32.50;;
48911;SDS011;34722;52.108;5.044;2022-11-15T07:40:30;83.47;;;32.15;;
48911;SDS011;34722;52.108;5.044;2022-11-15T07:43:06;72.65;;;34.38;;
48911;SDS011;34722;52.108;5.044;2022-11-15T07:45:33;67.72;;;31.92;;
48911;SDS011;34722;52.108;5.044;2022-11-15T07:48:07;78.30;;;32.90;;
48911;SDS011;34722;52.108;5.044;2022-11-15T07:50:33;62.55;;;31.08;;
48911;SDS011;34722;52.108;5.044;2022-11-15T07:53:01;73.65;;;30.65;;
48911;SDS011;34722;52.108;5.044;2022-11-15T07:55:27;62.95;;;28.27;;
48911;SDS011;34722;52.108;5.044;2022-11-15T08:00:49;56.75;;;27.55;;
48911;SDS011;34722;52.108;5.044;2022-11-15T08:03:16;58.72;;;28.30;;
48911;SDS011;34722;52.108;5.044;2022-11-15T08:05:42;59.00;;;26.63;;
48911;SDS011;34722;52.108;5.044;2022-11-15T08:08:14;49.17;;;24.23;;
48911;SDS011;34722;52.108;5.044;2022-11-15T08:10:43;45.78;;;23.67;;
48911;SDS011;34722;52.108;5.044;2022-11-15T08:13:13;48.67;;;23.63;;
48911;SDS011;34722;52.108;5.044;2022-11-15T08:15:45;48.88;;;23.38;;
48911;SDS011;34722;52.108;5.044;2022-11-15T08:18:11;43.22;;;22.73;;
48911;SDS011;34722;52.108;5.044;2022-11-15T08:20:41;43.38;;;23.95;;
48911;SDS011;34722;52.108;5.044;2022-11-15T08:23:07;46.35;;;21.00;;
48911;SDS011;34722;52.108;5.044;2022-11-15T08:25:35;38.53;;;20.95;;
48911;SDS011;34722;52.108;5.044;2022-11-15T08:28:02;46.45;;;20.55;;
48911;SDS011;34722;52.108;5.044;2022-11-15T08:30:29;40.00;;;21.05;;
48911;SDS011;34722;52.108;5.044;2022-11-15T08:32:59;37.75;;;19.50;;
48911;SDS011;34722;52.108;5.044;2022-11-15T08:35:25;34.55;;;17.98;;
48911;SDS011;34722;52.108;5.044;2022-11-15T08:37:52;37.00;;;18.05;;
48911;SDS011;34722;52.108;5.044;2022-11-15T08:40:18;31.60;;;16.73;;
48911;SDS011;34722;52.108;5.044;2022-11-15T08:42:47;30.88;;;16.30;;
48911;SDS011;34722;52.108;5.044;2022-11-15T08:45:13;31.75;;;15.20;;
48911;SDS011;34722;52.108;5.044;2022-11-15T08:47:43;26.35;;;14.05;;
48911;SDS011;34722;52.108;5.044;2022-11-15T08:50:09;23.88;;;13.10;;
48911;SDS011;34722;52.108;5.044;2022-11-15T08:52:35;27.20;;;11.88;;
48911;SDS011;34722;52.108;5.044;2022-11-15T08:55:01;20.02;;;12.30;;
48911;SDS011;34722;52.108;5.044;2022-11-15T08:57:30;19.20;;;10.82;;
48911;SDS011;34722;52.108;5.044;2022-11-15T08:59:59;15.57;;;10.75;;
48911;SDS011;34722;52.108;5.044;2022-11-15T09:02:24;17.75;;;10.18;;
48911;SDS011;34722;52.108;5.044;2022-11-15T09:04:50;18.30;;;10.32;;
48911;SDS011;34722;52.108;5.044;2022-11-15T09:07:16;18.20;;;9.48;;
48911;SDS011;34722;52.108;5.044;2022-11-15T09:09:42;17.20;;;10.38;;
48911;SDS011;34722;52.108;5.044;2022-11-15T09:12:08;16.40;;;9.40;;
48911;SDS011;34722;52.108;5.044;2022-11-15T09:14:34;16.58;;;9.18;;
48911;SDS011;34722;52.108;5.044;2022-11-15T09:17:03;13.82;;;8.38;;
48911;SDS011;34722;52.108;5.044;2022-11-15T09:19:31;17.23;;;9.73;;
48911;SDS011;34722;52.108;5.044;2022-11-15T09:22:00;11.20;;;8.88;;
48911;SDS011;34722;52.108;5.044;2022-11-15T09:24:26;13.35;;;9.05;;
48911;SDS011;34722;52.108;5.044;2022-11-15T09:26:52;19.50;;;9.13;;
48911;SDS011;34722;52.108;5.044;2022-11-15T09:29:18;13.05;;;9.38;;
48911;SDS011;34722;52.108;5.044;2022-11-15T09:31:44;30.63;;;9.18;;
48911;SDS011;34722;52.108;5.044;2022-11-15T09:34:09;17.50;;;8.80;;
48911;SDS011;34722;52.108;5.044;2022-11-15T09:36:36;14.10;;;8.98;;
48911;SDS011;34722;52.108;5.044;2022-11-15T09:39:02;13.07;;;8.90;;
48911;SDS011;34722;52.108;5.044;2022-11-15T09:49:57;17.02;;;9.82;;
48911;SDS011;34722;52.108;5.044;2022-11-15T09:52:25;11.90;;;8.70;;
48911;SDS011;34722;52.108;5.044;2022-11-15T09:54:52;15.38;;;8.85;;
48911;SDS011;34722;52.108;5.044;2022-11-15T10:05:19;20.73;;;9.60;;
48911;SDS011;34722;52.108;5.044;2022-11-15T10:08:06;12.13;;;8.20;;
48911;SDS011;34722;52.108;5.044;2022-11-15T10:10:46;16.80;;;8.88;;
48911;SDS011;34722;52.108;5.044;2022-11-15T10:13:34;15.90;;;8.23;;
48911;SDS011;34722;52.108;5.044;2022-11-15T10:24:49;14.40;;;8.63;;
48911;SDS011;34722;52.108;5.044;2022-11-15T10:27:18;14.05;;;7.45;;
48911;SDS011;34722;52.108;5.044;2022-11-15T10:29:45;10.80;;;6.45;;
48911;SDS011;34722;52.108;5.044;2022-11-15T10:32:15;10.50;;;6.32;;
48911;SDS011;34722;52.108;5.044;2022-11-15T10:34:42;10.55;;;5.82;;
48911;SDS011;34722;52.108;5.044;2022-11-15T10:37:08;10.13;;;6.05;;
48911;SDS011;34722;52.108;5.044;2022-11-15T10:39:34;10.63;;;6.10;;
48911;SDS011;34722;52.108;5.044;2022-11-15T10:42:25;14.40;;;6.35;;
48911;SDS011;34722;52.108;5.044;2022-11-15T10:44:53;9.82;;;5.38;;
48911;SDS011;34722;52.108;5.044;2022-11-15T10:47:21;9.60;;;6.88;;
48911;SDS011;34722;52.108;5.044;2022-11-15T10:49:58;9.93;;;6.40;;
48911;SDS011;34722;52.108;5.044;2022-11-15T10:52:31;11.93;;;5.55;;
48911;SDS011;34722;52.108;5.044;2022-11-15T10:55:01;10.73;;;5.30;;
48911;SDS011;34722;52.108;5.044;2022-11-15T10:57:37;9.73;;;4.88;;
48911;SDS011;34722;52.108;5.044;2022-11-15T11:03:33;9.63;;;5.28;;
48911;SDS011;34722;52.108;5.044;2022-11-15T11:05:45;8.75;;;5.07;;
48911;SDS011;34722;52.108;5.044;2022-11-15T11:10:52;11.00;;;4.25;;
48911;SDS011;34722;52.108;5.044;2022-11-15T11:15:53;6.57;;;4.22;;
48911;SDS011;34722;52.108;5.044;2022-11-15T11:18:37;11.02;;;5.15;;
48911;SDS011;34722;52.108;5.044;2022-11-15T11:21:08;8.45;;;3.97;;
48911;SDS011;34722;52.108;5.044;2022-11-15T11:23:56;9.35;;;3.55;;
48911;SDS011;34722;52.108;5.044;2022-11-15T11:26:32;9.95;;;3.22;;
48911;SDS011;34722;52.108;5.044;2022-11-15T11:32:14;16.15;;;3.45;;
48911;SDS011;34722;52.108;5.044;2022-11-15T11:35:00;8.93;;;2.75;;
48911;SDS011;34722;52.108;5.044;2022-11-15T11:40:40;9.68;;;3.15;;
48911;SDS011;34722;52.108;5.044;2022-11-15T11:49:06;4.65;;;2.45;;
48911;SDS011;34722;52.108;5.044;2022-11-15T11:51:42;10.60;;;3.45;;
48911;SDS011;34722;52.108;5.044;2022-11-15T11:54:14;12.95;;;2.55;;
48911;SDS011;34722;52.108;5.044;2022-11-15T11:56:48;6.05;;;2.22;;
48911;SDS011;34722;52.108;5.044;2022-11-15T12:02:08;8.77;;;2.20;;
48911;SDS011;34722;52.108;5.044;2022-11-15T12:04:44;4.78;;;2.25;;
48911;SDS011;34722;52.108;5.044;2022-11-15T12:07:25;8.18;;;2.40;;
48911;SDS011;34722;52.108;5.044;2022-11-15T12:10:03;7.40;;;2.13;;
48911;SDS011;34722;52.108;5.044;2022-11-15T12:15:16;8.20;;;2.10;;
48911;SDS011;34722;52.108;5.044;2022-11-15T12:18:02;7.35;;;2.88;;
48911;SDS011;34722;52.108;5.044;2022-11-15T12:20:34;6.13;;;1.58;;
48911;SDS011;34722;52.108;5.044;2022-11-15T12:26:03;4.95;;;1.63;;
48911;SDS011;34722;52.108;5.044;2022-11-15T12:31:24;3.33;;;2.72;;
48911;SDS011;34722;52.108;5.044;2022-11-15T12:34:01;9.23;;;2.58;;
48911;SDS011;34722;52.108;5.044;2022-11-15T12:36:38;7.60;;;2.00;;
48911;SDS011;34722;52.108;5.044;2022-11-15T12:39:09;8.07;;;2.58;;
48911;SDS011;34722;52.108;5.044;2022-11-15T13:05:52;4.32;;;1.42;;
48911;SDS011;34722;52.108;5.044;2022-11-15T13:08:07;6.25;;;1.65;;
48911;SDS011;34722;52.108;5.044;2022-11-15T13:10:33;6.15;;;1.98;;
48911;SDS011;34722;52.108;5.044;2022-11-15T13:13:00;6.32;;;1.60;;
48911;SDS011;34722;52.108;5.044;2022-11-15T13:15:32;6.63;;;1.70;;
48911;SDS011;34722;52.108;5.044;2022-11-15T13:18:23;6.67;;;1.87;;
48911;SDS011;34722;52.108;5.044;2022-11-15T13:20:54;9.80;;;1.90;;
48911;SDS011;34722;52.108;5.044;2022-11-15T13:23:20;8.02;;;2.22;;
48911;SDS011;34722;52.108;5.044;2022-11-15T13:28:44;7.35;;;2.10;;
48911;SDS011;34722;52.108;5.044;2022-11-15T13:33:45;5.28;;;1.73;;
48911;SDS011;34722;52.108;5.044;2022-11-15T13:38:43;4.00;;;1.77;;
48911;SDS011;34722;52.108;5.044;2022-11-15T13:41:19;5.22;;;2.38;;
48911;SDS011;34722;52.108;5.044;2022-11-15T13:43:47;4.30;;;2.35;;
48911;SDS011;34722;52.108;5.044;2022-11-15T13:46:27;7.20;;;2.80;;
48911;SDS011;34722;52.108;5.044;2022-11-15T13:49:00;7.03;;;2.30;;
48911;SDS011;34722;52.108;5.044;2022-11-15T13:56:55;7.47;;;2.20;;
48911;SDS011;34722;52.108;5.044;2022-11-15T13:59:26;10.88;;;2.30;;
48911;SDS011;34722;52.108;5.044;2022-11-15T14:02:13;9.05;;;2.40;;
48911;SDS011;34722;52.108;5.044;2022-11-15T14:04:46;8.65;;;3.03;;
48911;SDS011;34722;52.108;5.044;2022-11-15T14:07:17;4.60;;;2.90;;
48911;SDS011;34722;52.108;5.044;2022-11-15T14:09:45;6.80;;;1.90;;
48911;SDS011;34722;52.108;5.044;2022-11-15T14:14:52;9.55;;;2.40;;
48911;SDS011;34722;52.108;5.044;2022-11-15T14:17:20;7.10;;;2.85;;
48911;SDS011;34722;52.108;5.044;2022-11-15T14:19:55;6.78;;;2.75;;
48911;SDS011;34722;52.108;5.044;2022-11-15T14:22:23;10.35;;;2.85;;
48911;SDS011;34722;52.108;5.044;2022-11-15T14:27:38;4.90;;;2.85;;
48911;SDS011;34722;52.108;5.044;2022-11-15T14:30:05;5.07;;;2.70;;
48911;SDS011;34722;52.108;5.044;2022-11-15T14:33:11;6.90;;;2.80;;
48911;SDS011;34722;52.108;5.044;2022-11-15T14:35:23;12.13;;;2.92;;
48911;SDS011;34722;52.108;5.044;2022-11-15T14:37:49;5.28;;;2.55;;
48911;SDS011;34722;52.108;5.044;2022-11-15T14:40:18;8.57;;;3.85;;
48911;SDS011;34722;52.108;5.044;2022-11-15T14:42:46;8.70;;;3.30;;
48911;SDS011;34722;52.108;5.044;2022-11-15T14:45:20;7.55;;;3.28;;
48911;SDS011;34722;52.108;5.044;2022-11-15T14:47:47;12.55;;;3.60;;
48911;SDS011;34722;52.108;5.044;2022-11-15T14:50:13;5.68;;;2.90;;
48911;SDS011;34722;52.108;5.044;2022-11-15T14:53:00;6.05;;;2.90;;
48911;SDS011;34722;52.108;5.044;2022-11-15T14:55:33;4.57;;;2.67;;
48911;SDS011;34722;52.108;5.044;2022-11-15T14:58:05;7.03;;;2.92;;
48911;SDS011;34722;52.108;5.044;2022-11-15T15:00:36;8.23;;;2.88;;
48911;SDS011;34722;52.108;5.044;2022-11-15T15:03:06;8.15;;;4.78;;
48911;SDS011;34722;52.108;5.044;2022-11-15T15:05:37;7.28;;;3.42;;
48911;SDS011;34722;52.108;5.044;2022-11-15T15:08:05;5.15;;;2.35;;
48911;SDS011;34722;52.108;5.044;2022-11-15T15:10:32;5.85;;;2.28;;
48911;SDS011;34722;52.108;5.044;2022-11-15T15:13:03;4.78;;;2.65;;
48911;SDS011;34722;52.108;5.044;2022-11-15T15:15:33;6.63;;;2.72;;
48911;SDS011;34722;52.108;5.044;2022-11-15T15:18:04;9.40;;;2.58;;
48911;SDS011;34722;52.108;5.044;2022-11-15T15:20:31;3.95;;;2.50;;
48911;SDS011;34722;52.108;5.044;2022-11-15T15:22:57;6.40;;;2.50;;
48911;SDS011;34722;52.108;5.044;2022-11-15T15:25:33;6.65;;;2.50;;
48911;SDS011;34722;52.108;5.044;2022-11-15T15:28:00;5.10;;;2.78;;
48911;SDS011;34722;52.108;5.044;2022-11-15T15:30:27;9.50;;;2.58;;
48911;SDS011;34722;52.108;5.044;2022-11-15T15:32:55;8.77;;;2.70;;
48911;SDS011;34722;52.108;5.044;2022-11-15T15:35:21;7.20;;;2.70;;
48911;SDS011;34722;52.108;5.044;2022-11-15T15:37:48;10.70;;;2.80;;
48911;SDS011;34722;52.108;5.044;2022-11-15T15:40:16;8.77;;;2.75;;
48911;SDS011;34722;52.108;5.044;2022-11-15T15:42:43;7.75;;;2.53;;
48911;SDS011;34722;52.108;5.044;2022-11-15T15:45:09;7.13;;;2.55;;
48911;SDS011;34722;52.108;5.044;2022-11-15T15:47:35;8.48;;;3.42;;
48911;SDS011;34722;52.108;5.044;2022-11-15T15:50:02;3.35;;;2.10;;
48911;SDS011;34722;52.108;5.044;2022-11-15T15:52:41;9.40;;;2.83;;
48911;SDS011;34722;52.108;5.044;2022-11-15T15:55:08;6.25;;;2.50;;
48911;SDS011;34722;52.108;5.044;2022-11-15T15:57:35;4.10;;;2.13;;
48911;SDS011;34722;52.108;5.044;2022-11-15T16:00:04;8.30;;;2.80;;
48911;SDS011;34722;52.108;5.044;2022-11-15T16:05:36;6.20;;;2.13;;
48911;SDS011;34722;52.108;5.044;2022-11-15T16:08:20;5.95;;;3.00;;
48911;SDS011;34722;52.108;5.044;2022-11-15T16:10:58;4.97;;;2.30;;
48911;SDS011;34722;52.108;5.044;2022-11-15T16:13:25;5.07;;;2.20;;
48911;SDS011;34722;52.108;5.044;2022-11-15T16:15:52;4.90;;;2.40;;
48911;SDS011;34722;52.108;5.044;2022-11-15T16:18:19;4.95;;;2.33;;
48911;SDS011;34722;52.108;5.044;2022-11-15T16:20:46;4.60;;;2.33;;
48911;SDS011;34722;52.108;5.044;2022-11-15T16:23:21;4.90;;;2.35;;
48911;SDS011;34722;52.108;5.044;2022-11-15T16:28:21;6.38;;;2.33;;
48911;SDS011;34722;52.108;5.044;2022-11-15T16:33:34;7.13;;;2.47;;
48911;SDS011;34722;52.108;5.044;2022-11-15T16:36:03;6.22;;;2.55;;
48911;SDS011;34722;52.108;5.044;2022-11-15T16:38:33;4.82;;;2.88;;
48911;SDS011;34722;52.108;5.044;2022-11-15T16:41:00;7.57;;;2.45;;
48911;SDS011;34722;52.108;5.044;2022-11-15T16:43:26;5.80;;;2.88;;
48911;SDS011;34722;52.108;5.044;2022-11-15T16:45:53;4.82;;;2.80;;
48911;SDS011;34722;52.108;5.044;2022-11-15T16:50:55;8.55;;;2.80;;
48911;SDS011;34722;52.108;5.044;2022-11-15T16:53:22;7.03;;;3.05;;
48911;SDS011;34722;52.108;5.044;2022-11-15T16:55:48;9.60;;;4.63;;
48911;SDS011;34722;52.108;5.044;2022-11-15T16:58:13;8.35;;;3.20;;
48911;SDS011;34722;52.108;5.044;2022-11-15T17:00:39;6.85;;;2.90;;
48911;SDS011;34722;52.108;5.044;2022-11-15T17:03:11;10.55;;;3.85;;
48911;SDS011;34722;52.108;5.044;2022-11-15T17:05:39;7.10;;;3.63;;